YWG weather

Winnipeg / James Armstrong Richardson International Airport
Winnipeg, Manitoba, Canada

Public forecast

Using degrees Celsius for public forecast. Weather courtesy of forecast.io.

Current aviation weather report (METAR) for Winnipeg / James Armstrong Richardson International Airport

Retrieved 2019/12/11 13:00 UTC (38 minutes ago):

CYWG 111300Z 25008KT 15SM SKC M23/M28 A3027 RMK SLP282

Aviation forecast (TAF) for Winnipeg / James Armstrong Richardson International Airport

Retrieved 2019/12/11 12:39 UTC (59 minutes ago):

TAF CYWG 111138Z 1112/1212 25005KT P6SM SKC BECMG 1118/1120 22007KT FM112100 22007KT P6SM BKN200 BECMG 1122/1124 18008KT FM120700 16007KT P6SM BKN100 BECMG 1208/1210 11007KT FM121100 10007KT P6SM SCT100 RMK NXT FCST BY 111800Z